createdAt,value
2023-02-19T00:00:06.160Z,25.70
2023-02-19T00:03:05.557Z,22.40
2023-02-19T00:05:17.341Z,21.80
2023-02-19T00:07:29.137Z,21.00
2023-02-19T00:09:40.614Z,21.50
2023-02-19T00:11:52.611Z,22.40
2023-02-19T00:14:04.743Z,26.30
2023-02-19T00:16:21.324Z,24.20
2023-02-19T00:18:33.096Z,20.70
2023-02-19T00:20:44.896Z,24.80
2023-02-19T00:22:56.885Z,24.50
2023-02-19T00:25:08.571Z,28.60
2023-02-19T00:27:20.605Z,25.50
2023-02-19T00:29:32.867Z,27.40
2023-02-19T00:31:45.792Z,24.70
2023-02-19T00:34:00.646Z,24.90
2023-02-19T00:36:13.173Z,21.50
2023-02-19T00:38:25.254Z,30.60
2023-02-19T00:40:38.579Z,23.00
2023-02-19T00:42:50.778Z,22.30
2023-02-19T00:45:03.188Z,25.80
2023-02-19T00:47:15.483Z,25.00
2023-02-19T00:49:27.178Z,27.90
2023-02-19T00:51:39.300Z,24.20
2023-02-19T00:53:51.775Z,26.10
2023-02-19T00:56:04.488Z,22.60
2023-02-19T00:58:16.382Z,21.90
2023-02-19T01:00:28.068Z,21.00
2023-02-19T01:02:39.754Z,23.10
2023-02-19T01:04:51.771Z,23.30
2023-02-19T01:07:03.946Z,21.20
2023-02-19T01:09:16.042Z,20.50
2023-02-19T01:11:27.934Z,26.60
2023-02-19T01:13:40.561Z,24.20
2023-02-19T01:15:52.703Z,21.30
2023-02-19T01:18:05.291Z,23.70
2023-02-19T01:20:17.345Z,25.50
2023-02-19T01:22:29.033Z,22.80
2023-02-19T01:24:41.027Z,26.60
2023-02-19T01:26:53.022Z,24.20
2023-02-19T01:29:05.230Z,23.60
2023-02-19T01:31:22.895Z,25.10
2023-02-19T01:33:35.472Z,32.90
2023-02-19T01:35:47.554Z,23.40
2023-02-19T01:37:59.469Z,26.70
2023-02-19T01:40:11.442Z,22.60
2023-02-19T01:42:23.130Z,30.40
2023-02-19T01:44:35.232Z,24.20
2023-02-19T01:46:48.761Z,26.80
2023-02-19T01:49:21.348Z,25.90
2023-02-19T01:51:36.620Z,25.10
2023-02-19T01:53:56.291Z,24.60
2023-02-19T01:56:09.926Z,23.90
2023-02-19T01:58:26.013Z,23.70
2023-02-19T02:00:37.829Z,25.60
2023-02-19T02:02:55.016Z,22.60
2023-02-19T02:05:14.000Z,28.10
2023-02-19T02:07:45.224Z,25.80
2023-02-19T02:10:16.468Z,23.80
2023-02-19T02:12:28.357Z,20.30
2023-02-19T02:14:48.341Z,24.40
2023-02-19T02:17:25.526Z,23.40
2023-02-19T02:19:59.023Z,23.80
2023-02-19T02:22:21.164Z,23.30
2023-02-19T02:25:00.394Z,26.60
2023-02-19T02:27:43.992Z,24.90
2023-02-19T02:30:08.669Z,25.90
2023-02-19T02:32:26.798Z,28.20
2023-02-19T02:35:01.382Z,27.90
2023-02-19T02:37:15.892Z,20.70
2023-02-19T02:39:28.546Z,26.20
2023-02-19T02:41:46.478Z,27.00
2023-02-19T02:43:58.701Z,26.30
2023-02-19T02:46:20.402Z,31.30
2023-02-19T02:48:40.697Z,28.60
2023-02-19T02:50:58.931Z,26.50
2023-02-19T02:53:38.883Z,28.60
2023-02-19T02:55:53.540Z,28.70
2023-02-19T02:58:06.249Z,31.40
2023-02-19T03:00:18.762Z,30.20
2023-02-19T03:02:31.516Z,29.00
2023-02-19T03:05:13.877Z,28.20
2023-02-19T03:07:32.493Z,31.40
2023-02-19T03:09:44.726Z,32.00
2023-02-19T03:12:30.412Z,30.80
2023-02-19T03:15:09.746Z,34.10
2023-02-19T03:17:46.625Z,30.40
2023-02-19T03:20:01.189Z,30.90
2023-02-19T03:22:22.189Z,31.10
2023-02-19T03:24:56.810Z,35.40
2023-02-19T03:27:10.656Z,31.70
2023-02-19T03:29:29.710Z,30.50
2023-02-19T03:31:49.494Z,28.90
2023-02-19T03:34:07.254Z,37.20
2023-02-19T03:36:26.225Z,32.00
2023-02-19T03:38:52.098Z,34.60
2023-02-19T03:41:22.414Z,37.80
2023-02-19T03:44:08.816Z,34.30
2023-02-19T03:46:39.906Z,33.20
2023-02-19T03:48:57.435Z,29.90
2023-02-19T03:51:25.161Z,39.10
2023-02-19T03:54:02.384Z,40.10
2023-02-19T03:56:28.153Z,36.80
2023-02-19T03:58:51.208Z,41.20
2023-02-19T04:01:08.849Z,37.60
2023-02-19T04:05:45.674Z,37.00
2023-02-19T04:08:04.393Z,35.70
2023-02-19T04:10:19.963Z,44.50
2023-02-19T04:12:37.316Z,38.80
2023-02-19T04:14:54.971Z,39.60
2023-02-19T04:17:28.404Z,43.60
2023-02-19T04:19:42.867Z,35.20
2023-02-19T04:21:58.743Z,41.90
2023-02-19T04:24:16.302Z,37.60
2023-02-19T04:26:29.286Z,40.00
2023-02-19T04:28:43.178Z,37.40
2023-02-19T04:30:54.732Z,37.80
2023-02-19T04:33:06.397Z,35.80
2023-02-19T04:35:18.181Z,35.30
2023-02-19T04:37:29.973Z,41.60
2023-02-19T04:39:41.576Z,33.80
2023-02-19T04:41:53.453Z,36.20
2023-02-19T04:44:05.668Z,34.60
2023-02-19T04:46:17.565Z,34.10
2023-02-19T04:48:30.008Z,39.10
2023-02-19T04:50:41.733Z,35.00
2023-02-19T04:52:53.321Z,38.50
2023-02-19T04:55:05.723Z,40.60
2023-02-19T04:57:17.717Z,38.60
2023-02-19T04:59:29.505Z,39.80
2023-02-19T05:01:41.641Z,38.80
2023-02-19T05:03:53.802Z,37.60
2023-02-19T05:06:11.779Z,38.80
2023-02-19T05:08:23.833Z,36.80
2023-02-19T05:10:35.931Z,37.40
2023-02-19T05:12:47.413Z,31.70
2023-02-19T05:14:59.408Z,37.40
2023-02-19T05:17:11.304Z,32.70
2023-02-19T05:19:23.092Z,36.10
2023-02-19T05:21:34.879Z,42.50
2023-02-19T05:23:46.777Z,47.20
2023-02-19T05:25:58.358Z,35.80
2023-02-19T05:28:19.477Z,50.20
2023-02-19T05:30:31.524Z,44.80
2023-02-19T05:32:43.766Z,60.00
2023-02-19T05:34:55.859Z,46.60
2023-02-19T05:37:08.059Z,52.60
2023-02-19T05:39:19.848Z,54.40
2023-02-19T05:41:31.870Z,45.30
2023-02-19T05:43:45.901Z,51.10
2023-02-19T05:46:01.116Z,52.20
2023-02-19T05:48:13.169Z,39.30
2023-02-19T05:50:25.349Z,40.80
2023-02-19T05:52:37.349Z,39.00
2023-02-19T05:54:49.545Z,38.20
2023-02-19T05:57:01.231Z,41.60
2023-02-19T05:59:19.288Z,36.00
2023-02-19T06:01:31.264Z,36.90
2023-02-19T06:03:43.204Z,38.30
2023-02-19T06:05:55.355Z,39.40
2023-02-19T06:08:07.452Z,54.10
2023-02-19T06:10:19.552Z,36.20
2023-02-19T06:12:31.749Z,37.70
2023-02-19T06:14:43.335Z,40.30
2023-02-19T06:16:55.023Z,41.00
2023-02-19T06:19:06.921Z,44.20
2023-02-19T06:21:19.625Z,41.70
2023-02-19T06:23:32.111Z,81.00
2023-02-19T06:25:43.722Z,136.80
2023-02-19T06:27:55.716Z,70.80
2023-02-19T06:30:08.846Z,49.50
2023-02-19T06:32:20.879Z,42.10
2023-02-19T06:34:34.464Z,41.30
2023-02-19T06:36:49.327Z,42.00
2023-02-19T06:39:01.529Z,84.60
2023-02-19T06:41:14.492Z,54.50
2023-02-19T06:43:26.543Z,43.40
2023-02-19T06:45:38.237Z,41.40
2023-02-19T06:47:49.765Z,32.40
2023-02-19T06:50:01.736Z,40.20
2023-02-19T06:52:13.807Z,37.30
2023-02-19T06:54:26.182Z,38.40
2023-02-19T06:56:40.303Z,40.30
2023-02-19T06:58:54.477Z,37.50
2023-02-19T07:01:06.107Z,36.40
2023-02-19T07:03:18.589Z,40.90
2023-02-19T07:05:30.789Z,38.50
2023-02-19T07:07:46.062Z,34.00
2023-02-19T07:09:57.847Z,39.50
2023-02-19T07:12:10.356Z,39.70
2023-02-19T07:14:22.366Z,34.00
2023-02-19T07:16:34.716Z,46.30
2023-02-19T07:18:47.053Z,35.30
2023-02-19T07:21:04.177Z,41.40
2023-02-19T07:23:15.649Z,41.80
2023-02-19T07:25:27.542Z,34.40
2023-02-19T07:27:39.130Z,44.30
2023-02-19T07:29:50.920Z,38.60
2023-02-19T07:32:02.702Z,43.40
2023-02-19T07:34:14.703Z,37.10
2023-02-19T07:36:26.799Z,40.90
2023-02-19T07:38:38.794Z,37.60
2023-02-19T07:40:59.189Z,43.60
2023-02-19T07:43:11.188Z,42.10
2023-02-19T07:45:23.015Z,39.60
2023-02-19T07:47:34.866Z,38.40
2023-02-19T07:49:47.068Z,37.10
2023-02-19T07:51:59.266Z,44.20
2023-02-19T07:54:11.770Z,48.80
2023-02-19T07:56:23.973Z,43.60
2023-02-19T07:58:36.994Z,47.20
2023-02-19T08:00:48.967Z,38.50
2023-02-19T08:03:01.031Z,59.20
2023-02-19T08:05:14.006Z,58.90
2023-02-19T08:07:25.687Z,51.80
2023-02-19T08:09:38.301Z,55.60
2023-02-19T08:12:08.992Z,39.20
2023-02-19T08:14:25.223Z,57.00
2023-02-19T08:16:42.891Z,64.20
2023-02-19T08:18:57.916Z,87.20
2023-02-19T08:21:11.030Z,66.40
2023-02-19T08:23:23.747Z,47.80
2023-02-19T08:25:36.052Z,40.50
2023-02-19T08:27:48.042Z,48.60
2023-02-19T08:30:00.075Z,62.30
2023-02-19T08:32:12.588Z,57.10
2023-02-19T08:34:24.446Z,67.80
2023-02-19T08:36:36.645Z,66.10
2023-02-19T08:38:48.224Z,49.30
2023-02-19T08:41:00.021Z,51.70
2023-02-19T08:43:13.954Z,54.00
2023-02-19T08:45:25.536Z,46.10
2023-02-19T08:47:38.760Z,41.10
2023-02-19T08:49:50.958Z,43.50
2023-02-19T08:52:02.749Z,33.30
2023-02-19T08:54:14.435Z,31.00
2023-02-19T08:56:26.224Z,35.00
2023-02-19T08:58:38.728Z,31.40
2023-02-19T09:00:50.315Z,32.40
2023-02-19T09:03:02.417Z,34.20
2023-02-19T09:05:14.516Z,37.40
2023-02-19T09:07:26.196Z,31.30
2023-02-19T09:09:38.601Z,27.30
2023-02-19T09:11:50.701Z,30.50
2023-02-19T09:14:02.365Z,22.40
2023-02-19T09:16:14.148Z,37.10
2023-02-19T09:18:27.093Z,34.80
2023-02-19T09:20:39.197Z,30.80
2023-02-19T09:22:57.646Z,27.30
2023-02-19T09:25:10.245Z,25.60
2023-02-19T09:27:22.240Z,27.00
2023-02-19T09:29:34.754Z,22.70
2023-02-19T09:31:46.636Z,28.40
2023-02-19T09:33:58.739Z,31.70
2023-02-19T09:36:11.246Z,30.70
2023-02-19T09:38:23.041Z,27.10
2023-02-19T09:40:36.584Z,25.90
2023-02-19T09:42:51.637Z,22.70
2023-02-19T09:45:05.171Z,29.30
2023-02-19T09:47:29.612Z,18.10
2023-02-19T09:49:50.264Z,20.30
2023-02-19T09:52:28.863Z,28.70
2023-02-19T09:56:56.541Z,31.60
2023-02-19T09:59:21.541Z,24.90
2023-02-19T10:01:37.852Z,24.40
2023-02-19T10:03:49.931Z,27.60
2023-02-19T10:06:24.147Z,21.20
2023-02-19T10:08:38.005Z,23.70
2023-02-19T10:10:49.897Z,24.50
2023-02-19T10:13:34.843Z,17.90
2023-02-19T10:16:00.931Z,18.20
2023-02-19T10:18:13.066Z,18.60
2023-02-19T10:20:28.132Z,15.90
2023-02-19T10:22:42.322Z,20.80
2023-02-19T10:24:56.528Z,20.10
2023-02-19T10:27:13.743Z,20.20
2023-02-19T10:29:27.423Z,24.40
2023-02-19T10:31:39.231Z,34.50
2023-02-19T10:34:00.438Z,32.70
2023-02-19T10:36:26.694Z,36.70
2023-02-19T10:38:47.117Z,26.20
2023-02-19T10:41:06.571Z,31.50
2023-02-19T10:43:31.368Z,36.70
2023-02-19T10:45:50.408Z,24.50
2023-02-19T10:48:03.549Z,20.00
2023-02-19T10:50:39.369Z,20.20
2023-02-19T10:52:54.622Z,31.00
2023-02-19T10:55:19.168Z,31.10
2023-02-19T10:57:33.116Z,21.30
2023-02-19T10:59:53.801Z,20.60
2023-02-19T11:02:17.569Z,24.10
2023-02-19T11:04:35.599Z,18.00
2023-02-19T11:06:48.148Z,13.90
2023-02-19T11:09:01.446Z,12.30
2023-02-19T11:11:26.300Z,17.20
2023-02-19T11:13:39.865Z,17.20
2023-02-19T11:15:54.526Z,12.70
2023-02-19T11:18:12.563Z,16.70
2023-02-19T11:20:26.607Z,15.40
2023-02-19T11:22:47.018Z,13.40
2023-02-19T11:25:25.934Z,16.60
2023-02-19T11:27:58.410Z,17.50
2023-02-19T11:30:40.144Z,12.40
2023-02-19T11:32:51.977Z,9.20
2023-02-19T11:35:19.652Z,13.60
2023-02-19T11:37:32.255Z,12.20
2023-02-19T11:39:51.941Z,18.40
2023-02-19T11:42:35.476Z,18.80
2023-02-19T11:45:26.792Z,19.50
2023-02-19T11:48:03.861Z,19.30
2023-02-19T11:50:34.392Z,24.90
2023-02-19T11:52:50.073Z,20.50
2023-02-19T11:55:08.008Z,17.40
2023-02-19T11:57:44.373Z,26.60
2023-02-19T12:00:02.398Z,12.60
2023-02-19T12:02:20.978Z,13.00
2023-02-19T12:05:07.690Z,17.60
2023-02-19T12:07:50.478Z,13.60
2023-02-19T12:10:07.289Z,14.50
2023-02-19T12:12:38.082Z,19.10
2023-02-19T12:14:57.193Z,14.70
2023-02-19T12:17:30.893Z,12.00
2023-02-19T12:19:51.487Z,17.10
2023-02-19T12:22:24.675Z,12.80
2023-02-19T12:24:48.857Z,20.00
2023-02-19T12:27:22.971Z,11.80
2023-02-19T12:30:05.832Z,16.80
2023-02-19T12:32:33.244Z,19.40
2023-02-19T12:35:14.729Z,17.00
2023-02-19T12:37:44.337Z,18.80
2023-02-19T12:40:13.025Z,15.00
2023-02-19T12:44:57.910Z,13.20
2023-02-19T12:47:18.396Z,10.50
2023-02-19T12:49:47.988Z,11.40
2023-02-19T12:52:06.556Z,15.80
2023-02-19T12:54:33.499Z,12.80
2023-02-19T12:56:55.263Z,15.60
2023-02-19T12:59:13.914Z,16.10
2023-02-19T13:01:35.365Z,16.70
2023-02-19T13:04:06.845Z,14.20
2023-02-19T13:06:38.192Z,13.40
2023-02-19T13:09:07.606Z,11.20
2023-02-19T13:11:34.543Z,11.20
2023-02-19T13:16:19.477Z,13.50
2023-02-19T13:18:54.661Z,16.00
2023-02-19T13:21:07.271Z,18.90
2023-02-19T13:23:50.093Z,11.20
2023-02-19T13:26:14.714Z,12.40
2023-02-19T13:28:41.418Z,10.30
2023-02-19T13:31:02.745Z,12.80
2023-02-19T13:33:45.037Z,11.30
2023-02-19T13:36:06.398Z,10.70
2023-02-19T13:38:18.863Z,15.60
2023-02-19T13:40:36.184Z,11.60
2023-02-19T13:42:57.042Z,13.90
2023-02-19T13:45:42.051Z,15.80
2023-02-19T13:48:00.104Z,10.40
2023-02-19T13:50:21.594Z,12.00
2023-02-19T13:52:38.109Z,12.60
2023-02-19T13:54:50.302Z,17.40
2023-02-19T13:57:27.074Z,15.00
2023-02-19T13:59:40.606Z,9.60
2023-02-19T14:01:55.884Z,26.00
2023-02-19T14:04:18.936Z,45.50
2023-02-19T14:06:30.839Z,55.50
2023-02-19T14:08:48.097Z,27.00
2023-02-19T14:11:03.040Z,19.90
2023-02-19T14:13:58.418Z,42.90
2023-02-19T14:16:29.257Z,66.20
2023-02-19T14:18:46.770Z,19.10
2023-02-19T14:21:14.547Z,29.10
2023-02-19T14:23:26.435Z,11.70
2023-02-19T14:25:49.293Z,20.20
2023-02-19T14:28:10.186Z,10.00
2023-02-19T14:30:23.852Z,10.80
2023-02-19T14:32:36.340Z,88.10
2023-02-19T14:34:48.422Z,137.00
2023-02-19T14:37:02.254Z,128.20
2023-02-19T14:39:18.972Z,77.50
2023-02-19T14:41:33.397Z,168.00
2023-02-19T14:43:49.117Z,76.60
2023-02-19T14:46:07.754Z,30.20
2023-02-19T14:48:26.912Z,20.40
2023-02-19T14:50:38.800Z,17.70
2023-02-19T14:52:55.499Z,19.10
2023-02-19T14:55:30.746Z,21.10
2023-02-19T14:57:46.246Z,14.00
2023-02-19T15:00:00.690Z,19.90
2023-02-19T15:02:21.184Z,22.70
2023-02-19T15:04:37.612Z,21.00
2023-02-19T15:06:53.248Z,32.50
2023-02-19T15:09:07.298Z,35.30
2023-02-19T15:11:23.187Z,29.30
2023-02-19T15:13:35.544Z,21.00
2023-02-19T15:15:47.949Z,20.30
2023-02-19T15:18:02.043Z,17.10
2023-02-19T15:20:26.527Z,18.90
2023-02-19T15:23:25.439Z,17.00
2023-02-19T15:25:39.525Z,29.70
2023-02-19T15:27:51.961Z,17.00
2023-02-19T15:30:16.874Z,16.00
2023-02-19T15:32:29.572Z,14.00
2023-02-19T15:34:42.163Z,12.10
2023-02-19T15:37:00.735Z,14.10
2023-02-19T15:39:21.548Z,15.50
2023-02-19T15:41:35.578Z,10.90
2023-02-19T15:43:56.589Z,9.40
2023-02-19T15:46:19.828Z,10.50
2023-02-19T15:48:45.658Z,10.50
2023-02-19T15:51:08.321Z,9.40
2023-02-19T15:53:31.210Z,9.80
2023-02-19T15:55:45.719Z,11.50
2023-02-19T15:58:09.189Z,12.10
2023-02-19T16:00:36.657Z,16.00
2023-02-19T16:02:49.059Z,14.40
2023-02-19T16:05:02.514Z,15.30
2023-02-19T16:07:35.043Z,10.00
2023-02-19T16:09:47.009Z,14.40
2023-02-19T16:12:03.025Z,10.50
2023-02-19T16:14:35.397Z,13.40
2023-02-19T16:16:51.311Z,12.30
2023-02-19T16:19:03.004Z,55.80
2023-02-19T16:21:16.945Z,55.70
2023-02-19T16:23:29.115Z,48.60
2023-02-19T16:25:44.613Z,42.40
2023-02-19T16:27:57.702Z,32.90
2023-02-19T16:30:25.470Z,46.70
2023-02-19T16:34:51.816Z,48.50
2023-02-19T16:37:05.138Z,66.30
2023-02-19T16:39:19.576Z,299.70
2023-02-19T16:41:31.208Z,199.40
2023-02-19T16:43:43.893Z,291.10
2023-02-19T16:45:59.076Z,301.10
2023-02-19T16:48:11.875Z,297.20
2023-02-19T16:50:26.876Z,194.70
2023-02-19T16:52:57.465Z,202.40
2023-02-19T16:55:13.862Z,201.60
2023-02-19T16:57:25.518Z,77.80
2023-02-19T16:59:37.356Z,61.20
2023-02-19T17:01:49.540Z,46.60
2023-02-19T17:04:06.920Z,37.30
2023-02-19T17:06:18.546Z,26.30
2023-02-19T17:08:42.523Z,21.80
2023-02-19T17:10:56.194Z,23.10
2023-02-19T17:13:08.867Z,159.20
2023-02-19T17:15:22.748Z,220.90
2023-02-19T17:17:34.914Z,260.80
2023-02-19T17:19:46.795Z,367.30
2023-02-19T17:21:59.044Z,439.50
2023-02-19T17:24:11.738Z,353.00
2023-02-19T17:26:26.364Z,260.90
2023-02-19T17:28:40.450Z,226.60
2023-02-19T17:30:54.155Z,171.40
2023-02-19T17:33:05.932Z,220.30
2023-02-19T17:35:18.034Z,80.30
2023-02-19T17:37:30.034Z,67.60
2023-02-19T17:39:42.030Z,145.70
2023-02-19T17:41:53.910Z,137.90
2023-02-19T17:44:05.614Z,119.30
2023-02-19T17:46:19.419Z,60.20
2023-02-19T17:48:31.018Z,59.10
2023-02-19T17:50:43.730Z,63.70
2023-02-19T17:52:55.725Z,46.90
2023-02-19T17:55:07.927Z,43.60
2023-02-19T17:57:19.925Z,40.30
2023-02-19T17:59:32.022Z,45.40
2023-02-19T18:01:46.179Z,37.40
2023-02-19T18:03:57.813Z,32.40
2023-02-19T18:06:09.640Z,26.90
2023-02-19T18:08:21.331Z,23.70
2023-02-19T18:10:33.223Z,22.50
2023-02-19T18:12:45.113Z,20.20
2023-02-19T18:14:57.536Z,27.40
2023-02-19T18:17:09.689Z,25.30
2023-02-19T18:19:23.052Z,31.20
2023-02-19T18:21:34.627Z,23.40
2023-02-19T18:23:46.850Z,25.00
2023-02-19T18:25:58.720Z,27.30
2023-02-19T18:28:11.123Z,26.20
2023-02-19T18:30:24.012Z,31.20
2023-02-19T18:32:36.446Z,40.20
2023-02-19T18:34:56.224Z,46.30
2023-02-19T18:37:08.122Z,38.10
2023-02-19T18:39:20.006Z,22.20
2023-02-19T18:41:32.206Z,25.90
2023-02-19T18:43:44.200Z,25.00
2023-02-19T18:45:56.023Z,25.00
2023-02-19T18:48:08.088Z,27.40
2023-02-19T18:50:20.502Z,21.10
2023-02-19T18:52:32.287Z,29.90
2023-02-19T18:54:44.740Z,60.70
2023-02-19T18:56:57.438Z,60.40
2023-02-19T18:59:10.110Z,35.70
2023-02-19T19:01:21.709Z,27.10
2023-02-19T19:03:34.211Z,26.00
2023-02-19T19:05:46.607Z,23.80
2023-02-19T19:08:27.014Z,30.50
2023-02-19T19:10:41.423Z,44.70
2023-02-19T19:12:54.574Z,30.80
2023-02-19T19:15:08.994Z,21.60
2023-02-19T19:17:21.309Z,23.80
2023-02-19T19:19:36.621Z,22.30
2023-02-19T19:21:54.677Z,22.60
2023-02-19T19:24:10.183Z,25.70
2023-02-19T19:26:22.996Z,28.20
2023-02-19T19:28:39.062Z,26.00
2023-02-19T19:31:01.239Z,24.20
2023-02-19T19:33:17.765Z,21.60
2023-02-19T19:35:31.392Z,20.80
2023-02-19T19:37:45.914Z,20.60
2023-02-19T19:39:59.541Z,20.10
2023-02-19T19:42:12.674Z,25.50
2023-02-19T19:44:25.986Z,24.30
2023-02-19T19:46:46.494Z,28.00
2023-02-19T19:48:59.949Z,27.80
2023-02-19T19:51:14.185Z,22.00
2023-02-19T19:53:27.482Z,23.60
2023-02-19T19:55:40.298Z,26.60
2023-02-19T19:57:57.766Z,22.70
2023-02-19T20:00:16.315Z,26.60
2023-02-19T20:02:28.186Z,24.20
2023-02-19T20:04:39.926Z,23.90
2023-02-19T20:06:52.454Z,22.60
2023-02-19T20:09:06.293Z,25.40
2023-02-19T20:11:19.208Z,22.40
2023-02-19T20:13:32.842Z,17.30
2023-02-19T20:15:45.465Z,18.50
2023-02-19T20:17:57.854Z,18.10
2023-02-19T20:20:10.363Z,16.60
2023-02-19T20:22:22.049Z,20.70
2023-02-19T20:24:34.044Z,19.10
2023-02-19T20:26:45.835Z,22.90
2023-02-19T20:28:57.675Z,21.80
2023-02-19T20:31:10.964Z,19.30
2023-02-19T20:33:22.795Z,20.50
2023-02-19T20:35:34.840Z,22.80
2023-02-19T20:37:50.209Z,20.10
2023-02-19T20:40:02.308Z,21.00
2023-02-19T20:42:17.372Z,17.20
2023-02-19T20:44:30.596Z,17.70
2023-02-19T20:46:45.296Z,19.60
2023-02-19T20:48:57.859Z,19.20
2023-02-19T20:51:10.373Z,19.60
2023-02-19T20:53:22.875Z,17.80
2023-02-19T20:55:36.103Z,17.70
2023-02-19T20:57:53.842Z,18.30
2023-02-19T21:00:09.571Z,20.20
2023-02-19T21:02:28.034Z,18.30
2023-02-19T21:04:40.707Z,16.90
2023-02-19T21:06:52.764Z,16.20
2023-02-19T21:09:07.524Z,17.20
2023-02-19T21:11:20.661Z,22.50
2023-02-19T21:13:33.458Z,16.60
2023-02-19T21:15:47.188Z,17.70
2023-02-19T21:18:00.319Z,16.90
2023-02-19T21:20:14.976Z,17.00
2023-02-19T21:22:28.400Z,16.70
2023-02-19T21:24:42.242Z,16.10
2023-02-19T21:26:55.052Z,17.50
2023-02-19T21:29:08.592Z,16.60
2023-02-19T21:31:22.800Z,14.50
2023-02-19T21:33:36.464Z,13.50
2023-02-19T21:35:48.767Z,17.90
2023-02-19T21:38:03.323Z,15.10
2023-02-19T21:40:15.518Z,14.70
2023-02-19T21:42:28.948Z,13.00
2023-02-19T21:44:43.099Z,13.50
2023-02-19T21:46:55.191Z,12.20
2023-02-19T21:49:07.198Z,14.20
2023-02-19T21:51:21.025Z,14.40
2023-02-19T21:53:32.891Z,12.10
2023-02-19T21:55:56.636Z,16.40
2023-02-19T21:58:11.141Z,14.30
2023-02-19T22:00:23.128Z,11.00
2023-02-19T22:02:35.064Z,12.10
2023-02-19T22:04:53.686Z,11.80
2023-02-19T22:07:05.870Z,10.90
2023-02-19T22:09:18.093Z,11.70
2023-02-19T22:11:29.772Z,14.10
2023-02-19T22:13:41.449Z,15.60
2023-02-19T22:15:53.444Z,12.20
2023-02-19T22:18:06.188Z,10.60
2023-02-19T22:20:21.844Z,12.70
2023-02-19T22:22:34.031Z,12.80
2023-02-19T22:24:45.718Z,10.80
2023-02-19T22:26:58.432Z,12.30
2023-02-19T22:29:12.987Z,12.10
2023-02-19T22:31:26.608Z,15.10
2023-02-19T22:33:38.408Z,13.70
2023-02-19T22:35:50.505Z,13.50
2023-02-19T22:38:02.501Z,12.70
2023-02-19T22:40:14.216Z,14.30
2023-02-19T22:42:26.034Z,15.00
2023-02-19T22:44:38.482Z,15.20
2023-02-19T22:46:53.041Z,16.40
2023-02-19T22:49:06.466Z,16.30
2023-02-19T22:51:21.125Z,16.30
2023-02-19T22:53:33.323Z,16.50
2023-02-19T22:55:45.113Z,13.90
2023-02-19T22:57:56.903Z,16.10
2023-02-19T23:00:11.579Z,16.10
2023-02-19T23:02:23.658Z,13.20
2023-02-19T23:04:35.697Z,14.70
2023-02-19T23:06:48.674Z,12.80
2023-02-19T23:09:08.497Z,13.90
2023-02-19T23:11:29.049Z,12.00
2023-02-19T23:13:42.660Z,12.00
2023-02-19T23:15:54.690Z,10.70
2023-02-19T23:18:08.517Z,9.30
2023-02-19T23:20:20.927Z,8.00
2023-02-19T23:22:34.453Z,11.10
2023-02-19T23:24:46.447Z,8.00
2023-02-19T23:26:59.773Z,14.30
2023-02-19T23:29:15.044Z,14.30
2023-02-19T23:31:27.161Z,12.10
2023-02-19T23:33:39.753Z,10.80
2023-02-19T23:35:51.237Z,15.20
2023-02-19T23:38:03.123Z,11.20
2023-02-19T23:40:14.850Z,9.00
2023-02-19T23:42:26.601Z,12.00
2023-02-19T23:44:38.387Z,13.80
2023-02-19T23:46:51.200Z,10.50
2023-02-19T23:49:03.093Z,12.00
2023-02-19T23:51:15.088Z,11.00
2023-02-19T23:53:27.288Z,14.50
2023-02-19T23:55:39.280Z,11.20
2023-02-19T23:57:53.422Z,13.00
